Main page
METAR-TAF:

METAR-TAF

Airports :

Bahawalpur Airport

Bahawalpur, Pakistan

latitude: 29-20-53N, longitude: 71-43-04E, elevation: 119 m

METAR: missing

Time: 03:06 (22:06 UTC)

Forecast

The report was made 6 hours and 1 minutes ago, at 16:05 UTC
Forecast valid from 20 at 18 UTC to 21 at 12 UTC
Wind 10 kt from the North
Visibility: 3000 m
Few clouds at a height of 4000 ft
Scattered clouds at a height of 12000 ft
smoke
Probability 30% :
Temporary
from 20 at 01 UTC to 21 at 15 UTC
Wind 16 kt from the Northeast
Visibility: 2000 m
Scattered clouds at a height of 12000 ft
Low drifting dust

TAF: OPBW 201605Z 2018/2112 36010KT 3000 FU FEW040 SCT120 TN10/2101Z TX21/2110 PROB30 TEMPO 2001/2115 05016KT 2000 DRDU SCT120

Weather observations and forecasts of more than 4000 airports (METAR and TAF reports).

The available stations are represented by yellow and red dots on the map.

Hover mouse over dot to see the name of the station.

Then click to see weather observations and forecasts.

To change the map : click on the green buttons with a black cross to zoom in, on the green button with a dash to zoom out, or on the green arrows for adjacent maps.


METAR-TAF: